createdAt,value
2023-03-03T00:05:41.273Z,2.60
2023-03-03T00:09:48.977Z,2.60
2023-03-03T00:12:59.287Z,2.50
2023-03-03T00:15:56.272Z,2.50
2023-03-03T00:20:03.451Z,2.50
2023-03-03T00:26:07.851Z,2.50
2023-03-03T00:29:52.069Z,2.50
2023-03-03T00:33:26.240Z,2.50
2023-03-03T00:36:04.292Z,2.50
2023-03-03T00:38:57.522Z,2.50
2023-03-03T00:41:41.551Z,2.50
2023-03-03T00:45:06.532Z,2.50
2023-03-03T00:47:48.281Z,2.50
2023-03-03T00:50:52.649Z,2.50
2023-03-03T00:53:48.880Z,2.50
2023-03-03T00:56:42.253Z,2.40
2023-03-03T01:00:00.163Z,2.40
2023-03-03T01:03:18.611Z,2.50
2023-03-03T01:05:51.028Z,2.50
2023-03-03T01:08:30.888Z,2.50
2023-03-03T01:11:40.058Z,2.50
2023-03-03T01:14:31.343Z,2.50
2023-03-03T01:17:42.012Z,2.50
2023-03-03T01:27:24.085Z,2.50
2023-03-03T01:30:33.820Z,2.50
2023-03-03T01:33:14.327Z,2.50
2023-03-03T01:36:05.254Z,2.50
2023-03-03T01:38:44.755Z,2.50
2023-03-03T01:42:02.558Z,2.50
2023-03-03T01:47:58.928Z,2.50
2023-03-03T01:51:52.421Z,2.50
2023-03-03T01:58:52.270Z,2.40
2023-03-03T02:01:42.291Z,2.50
2023-03-03T02:04:45.908Z,2.40
2023-03-03T02:07:36.394Z,2.40
2023-03-03T02:10:56.456Z,2.40
2023-03-03T02:13:48.453Z,2.40
2023-03-03T02:17:06.471Z,2.40
2023-03-03T02:20:33.544Z,2.40
2023-03-03T02:24:00.280Z,2.40
2023-03-03T02:27:23.772Z,2.30
2023-03-03T02:34:32.172Z,2.40
2023-03-03T02:36:50.169Z,2.40
2023-03-03T02:39:38.179Z,2.40
2023-03-03T02:45:33.654Z,2.50
2023-03-03T02:48:27.787Z,2.50
2023-03-03T02:51:09.953Z,2.50
2023-03-03T02:53:45.038Z,2.40
2023-03-03T02:56:16.674Z,2.40
2023-03-03T02:58:46.888Z,2.40
2023-03-03T03:01:46.897Z,2.40
2023-03-03T03:04:51.217Z,2.30
2023-03-03T03:08:00.577Z,2.30
2023-03-03T03:10:42.049Z,2.30
2023-03-03T03:13:17.237Z,2.40
2023-03-03T03:16:06.228Z,2.30
2023-03-03T03:18:57.251Z,2.30
2023-03-03T03:21:54.853Z,2.30
2023-03-03T03:27:54.558Z,2.20
2023-03-03T03:30:46.079Z,2.20
2023-03-03T03:33:38.516Z,2.20
2023-03-03T03:36:23.434Z,2.20
2023-03-03T03:42:11.620Z,2.10
2023-03-03T03:44:52.589Z,2.10
2023-03-03T03:50:34.198Z,2.10
2023-03-03T03:53:10.250Z,2.00
2023-03-03T03:59:48.366Z,2.00
2023-03-03T04:06:02.509Z,2.00
2023-03-03T04:08:45.274Z,2.00
2023-03-03T04:11:37.914Z,2.00
2023-03-03T04:14:19.025Z,2.00
2023-03-03T04:16:50.861Z,1.90
2023-03-03T04:26:37.637Z,2.00
2023-03-03T04:30:19.301Z,2.00
2023-03-03T04:44:03.094Z,2.00
2023-03-03T04:48:29.431Z,2.00
2023-03-03T04:55:50.367Z,1.90
2023-03-03T04:58:55.288Z,1.90
2023-03-03T05:02:22.436Z,1.90
2023-03-03T05:15:53.751Z,1.90
2023-03-03T05:19:02.094Z,1.90
2023-03-03T05:22:25.348Z,1.90
2023-03-03T05:25:46.010Z,2.00
2023-03-03T05:28:53.276Z,1.90
2023-03-03T05:34:50.755Z,1.90
2023-03-03T05:42:14.776Z,1.90
2023-03-03T05:44:51.272Z,1.90
2023-03-03T05:47:36.766Z,1.90
2023-03-03T05:50:47.041Z,2.00
2023-03-03T05:54:18.951Z,2.00
2023-03-03T05:57:12.182Z,2.00
2023-03-03T06:06:39.936Z,2.00
2023-03-03T06:09:14.275Z,2.00
2023-03-03T06:11:48.178Z,2.00
2023-03-03T06:14:26.729Z,2.00
2023-03-03T06:16:54.535Z,2.00
2023-03-03T06:19:21.444Z,2.00
2023-03-03T06:21:48.360Z,2.00
2023-03-03T06:24:15.673Z,2.00
2023-03-03T06:26:42.716Z,2.00
2023-03-03T06:29:09.567Z,2.00
2023-03-03T06:31:36.851Z,2.00
2023-03-03T06:34:07.062Z,2.10
2023-03-03T06:36:34.041Z,2.10
2023-03-03T06:39:01.104Z,2.00
2023-03-03T06:41:28.873Z,2.00
2023-03-03T06:43:57.648Z,2.10
2023-03-03T06:46:28.590Z,2.10
2023-03-03T06:48:56.724Z,2.00
2023-03-03T06:51:39.889Z,2.10
2023-03-03T06:54:15.288Z,2.00
2023-03-03T06:56:49.249Z,2.10
2023-03-03T06:59:22.865Z,2.10
2023-03-03T07:01:53.254Z,2.10
2023-03-03T07:04:36.449Z,2.10
2023-03-03T07:07:27.811Z,2.10
2023-03-03T07:10:00.303Z,2.20
2023-03-03T07:12:33.406Z,2.20
2023-03-03T07:15:24.771Z,2.20
2023-03-03T07:18:00.058Z,2.20
2023-03-03T07:20:38.756Z,2.20
2023-03-03T07:23:42.687Z,2.20
2023-03-03T07:26:20.768Z,2.20
2023-03-03T07:28:57.584Z,2.20
2023-03-03T07:31:38.356Z,2.20
2023-03-03T07:34:40.433Z,2.20
2023-03-03T07:37:26.167Z,2.20
2023-03-03T07:39:53.138Z,2.30
2023-03-03T07:42:46.647Z,2.30
2023-03-03T07:45:38.656Z,2.30
2023-03-03T07:48:35.929Z,2.30
2023-03-03T07:51:44.335Z,2.40
2023-03-03T07:54:48.559Z,2.40
2023-03-03T07:57:23.049Z,2.40
2023-03-03T08:00:16.490Z,2.40
2023-03-03T08:03:00.430Z,2.50
2023-03-03T08:05:39.983Z,2.50
2023-03-03T08:08:09.873Z,2.50
2023-03-03T08:10:49.082Z,2.50
2023-03-03T08:13:27.876Z,2.50
2023-03-03T08:16:10.243Z,2.50
2023-03-03T08:18:50.194Z,2.50
2023-03-03T08:21:41.017Z,2.50
2023-03-03T08:24:07.973Z,2.50
2023-03-03T08:26:35.352Z,2.50
2023-03-03T08:29:02.793Z,2.50
2023-03-03T08:31:40.725Z,2.50
2023-03-03T08:34:09.117Z,2.50
2023-03-03T08:36:36.285Z,2.50
2023-03-03T08:39:05.441Z,2.50
2023-03-03T08:41:32.529Z,2.50
2023-03-03T08:43:59.647Z,2.50
2023-03-03T08:46:28.636Z,2.50
2023-03-03T08:48:55.656Z,2.50
2023-03-03T08:51:22.524Z,2.60
2023-03-03T08:53:49.481Z,2.60
2023-03-03T08:56:16.548Z,2.60
2023-03-03T08:59:01.154Z,2.70
2023-03-03T09:01:30.148Z,2.70
2023-03-03T09:03:57.384Z,2.80
2023-03-03T09:06:25.014Z,2.80
2023-03-03T09:08:54.889Z,2.80
2023-03-03T09:11:29.193Z,2.80
2023-03-03T09:14:14.597Z,2.80
2023-03-03T09:16:51.848Z,2.80
2023-03-03T09:19:38.728Z,2.80
2023-03-03T09:22:26.240Z,2.80
2023-03-03T09:24:58.736Z,2.80
2023-03-03T09:27:36.740Z,2.80
2023-03-03T09:30:35.973Z,2.90
2023-03-03T09:33:40.821Z,2.90
2023-03-03T09:36:45.103Z,2.90
2023-03-03T09:39:31.191Z,2.90
2023-03-03T09:42:21.759Z,2.90
2023-03-03T09:45:18.832Z,2.90
2023-03-03T09:48:01.606Z,3.00
2023-03-03T09:50:59.531Z,3.00
2023-03-03T09:53:48.576Z,3.10
2023-03-03T09:56:42.359Z,3.10
2023-03-03T09:59:41.491Z,3.20
2023-03-03T10:02:35.744Z,3.20
2023-03-03T10:05:32.315Z,3.20
2023-03-03T10:08:40.549Z,3.30
2023-03-03T10:11:34.409Z,3.30
2023-03-03T10:14:49.346Z,3.30
2023-03-03T10:17:48.580Z,3.40
2023-03-03T10:20:51.095Z,3.30
2023-03-03T10:24:04.722Z,3.40
2023-03-03T10:27:25.572Z,3.40
2023-03-03T10:30:02.649Z,3.50
2023-03-03T10:33:03.896Z,3.50
2023-03-03T10:35:40.885Z,3.60
2023-03-03T10:38:26.097Z,3.60
2023-03-03T10:41:17.614Z,3.70
2023-03-03T10:44:29.720Z,3.70
2023-03-03T10:47:30.289Z,3.70
2023-03-03T10:50:34.389Z,3.70
2023-03-03T10:53:34.097Z,3.80
2023-03-03T10:56:52.117Z,3.80
2023-03-03T10:59:37.686Z,3.80
2023-03-03T11:02:33.043Z,3.90
2023-03-03T11:05:16.910Z,4.00
2023-03-03T11:07:58.931Z,4.00
2023-03-03T11:11:16.857Z,4.10
2023-03-03T11:14:11.129Z,4.10
2023-03-03T11:16:54.683Z,4.20
2023-03-03T11:19:35.804Z,4.20
2023-03-03T11:22:02.957Z,4.20
2023-03-03T11:24:46.137Z,4.30
2023-03-03T11:27:40.580Z,4.30
2023-03-03T11:30:43.131Z,4.30
2023-03-03T11:33:15.474Z,4.40
2023-03-03T11:35:55.573Z,4.40
2023-03-03T11:39:01.804Z,4.50
2023-03-03T11:41:37.875Z,4.60
2023-03-03T11:44:27.358Z,4.60
2023-03-03T11:47:05.707Z,4.70
2023-03-03T11:49:59.713Z,4.80
2023-03-03T11:52:41.894Z,4.90
2023-03-03T11:55:21.337Z,4.90
2023-03-03T11:58:00.809Z,5.00
2023-03-03T12:00:50.878Z,5.10
2023-03-03T12:04:01.014Z,5.20
2023-03-03T12:07:19.335Z,5.30
2023-03-03T12:10:07.669Z,5.40
2023-03-03T12:12:43.376Z,5.50
2023-03-03T12:15:41.859Z,5.40
2023-03-03T12:18:28.083Z,5.50
2023-03-03T12:21:18.187Z,5.60
2023-03-03T12:24:21.396Z,5.60
2023-03-03T12:27:42.425Z,5.90
2023-03-03T12:30:34.256Z,6.50
2023-03-03T12:33:22.827Z,7.10
2023-03-03T12:36:16.920Z,7.80
2023-03-03T12:39:04.378Z,8.40
2023-03-03T12:41:52.561Z,9.10
2023-03-03T12:44:28.532Z,9.80
2023-03-03T12:47:12.778Z,10.20
2023-03-03T12:50:07.761Z,10.60
2023-03-03T12:53:02.694Z,10.90
2023-03-03T12:55:56.985Z,11.00
2023-03-03T12:58:32.031Z,11.30
2023-03-03T13:01:32.597Z,11.60
2023-03-03T13:04:20.536Z,11.60
2023-03-03T13:07:04.637Z,11.70
2023-03-03T13:09:56.562Z,11.70
2023-03-03T13:12:46.184Z,11.60
2023-03-03T13:15:37.911Z,11.70
2023-03-03T13:18:51.059Z,11.80
2023-03-03T13:21:37.299Z,12.10
2023-03-03T13:24:30.086Z,12.30
2023-03-03T13:27:16.818Z,12.60
2023-03-03T13:30:23.535Z,12.70
2023-03-03T13:33:03.117Z,12.80
2023-03-03T13:36:10.615Z,13.10
2023-03-03T13:38:48.579Z,13.10
2023-03-03T13:41:24.514Z,12.70
2023-03-03T13:44:15.256Z,12.40
2023-03-03T13:46:57.225Z,12.40
2023-03-03T13:49:24.132Z,12.70
2023-03-03T13:52:24.859Z,12.90
2023-03-03T13:55:15.891Z,13.20
2023-03-03T13:58:05.404Z,13.40
2023-03-03T14:00:55.398Z,13.60
2023-03-03T14:03:51.524Z,13.80
2023-03-03T14:06:24.368Z,14.10
2023-03-03T14:09:13.333Z,14.20
2023-03-03T14:11:56.631Z,14.20
2023-03-03T14:15:16.580Z,14.20
2023-03-03T14:18:09.546Z,14.10
2023-03-03T14:20:48.426Z,14.10
2023-03-03T14:23:28.461Z,14.00
2023-03-03T14:26:04.547Z,13.90
2023-03-03T14:28:52.512Z,14.00
2023-03-03T14:31:26.595Z,14.00
2023-03-03T14:34:11.655Z,14.00
2023-03-03T14:36:43.707Z,14.10
2023-03-03T14:39:39.304Z,14.10
2023-03-03T14:42:33.915Z,14.00
2023-03-03T14:45:28.580Z,14.00
2023-03-03T14:47:56.544Z,14.00
2023-03-03T14:50:39.069Z,14.00
2023-03-03T14:53:20.336Z,13.90
2023-03-03T14:55:52.110Z,13.60
2023-03-03T14:58:41.109Z,13.60
2023-03-03T15:01:30.609Z,13.60
2023-03-03T15:03:57.617Z,13.40
2023-03-03T15:06:41.735Z,13.40
2023-03-03T15:09:39.300Z,13.40
2023-03-03T15:12:37.842Z,13.60
2023-03-03T15:15:05.441Z,13.50
2023-03-03T15:17:54.891Z,13.50
2023-03-03T15:20:58.145Z,13.50
2023-03-03T15:23:45.663Z,13.40
2023-03-03T15:26:34.521Z,13.00
2023-03-03T15:29:39.131Z,12.70
2023-03-03T15:32:30.980Z,12.50
2023-03-03T15:35:19.334Z,12.30
2023-03-03T15:37:59.784Z,12.00
2023-03-03T15:40:34.645Z,11.90
2023-03-03T15:43:40.360Z,11.90
2023-03-03T15:46:47.439Z,12.00
2023-03-03T15:49:26.478Z,12.10
2023-03-03T15:52:24.954Z,12.10
2023-03-03T15:55:21.920Z,12.00
2023-03-03T15:58:36.412Z,11.90
2023-03-03T16:01:11.036Z,11.80
2023-03-03T16:04:05.891Z,11.70
2023-03-03T16:06:44.421Z,11.60
2023-03-03T16:09:30.261Z,11.40
2023-03-03T16:12:33.513Z,11.10
2023-03-03T16:15:13.545Z,10.90
2023-03-03T16:18:17.514Z,10.60
2023-03-03T16:21:20.870Z,10.40
2023-03-03T16:23:57.918Z,10.30
2023-03-03T16:26:36.887Z,10.10
2023-03-03T16:29:22.320Z,10.00
2023-03-03T16:31:52.824Z,10.00
2023-03-03T16:34:33.963Z,9.90
2023-03-03T16:37:07.242Z,9.80
2023-03-03T16:39:58.189Z,9.70
2023-03-03T16:42:33.563Z,9.60
2023-03-03T16:45:22.993Z,9.50
2023-03-03T16:47:53.644Z,9.50
2023-03-03T16:51:03.091Z,9.40
2023-03-03T16:54:12.254Z,9.30
2023-03-03T16:57:02.418Z,9.20
2023-03-03T16:59:52.766Z,9.00
2023-03-03T17:02:47.489Z,8.80
2023-03-03T17:05:29.197Z,8.60
2023-03-03T17:08:46.637Z,8.50
2023-03-03T17:11:19.391Z,8.30
2023-03-03T17:14:25.862Z,8.10
2023-03-03T17:17:04.319Z,8.10
2023-03-03T17:20:02.592Z,7.90
2023-03-03T17:23:03.035Z,7.80
2023-03-03T17:25:48.750Z,7.70
2023-03-03T17:29:11.930Z,7.50
2023-03-03T17:32:11.068Z,7.40
2023-03-03T17:35:19.205Z,7.30
2023-03-03T18:33:55.020Z,6.60
2023-03-03T18:36:27.760Z,6.60
2023-03-03T18:38:57.717Z,6.60
2023-03-03T18:41:34.092Z,6.60
2023-03-03T18:44:22.577Z,6.60
2023-03-03T18:46:52.065Z,6.60
2023-03-03T18:49:50.026Z,6.60
2023-03-03T18:52:23.502Z,6.70
2023-03-03T18:55:09.212Z,6.70
2023-03-03T18:57:39.748Z,6.70
2023-03-03T19:00:24.283Z,6.70
2023-03-03T19:02:55.186Z,6.70
2023-03-03T19:05:28.571Z,6.70
2023-03-03T19:08:44.190Z,6.70
2023-03-03T19:11:40.550Z,6.70
2023-03-03T19:14:27.652Z,6.70
2023-03-03T19:18:14.071Z,6.70
2023-03-03T19:21:20.484Z,6.70
2023-03-03T19:24:08.297Z,6.70
2023-03-03T19:27:13.926Z,6.70
2023-03-03T19:29:47.103Z,6.70
2023-03-03T19:33:00.136Z,6.70
2023-03-03T19:36:25.297Z,6.70
2023-03-03T19:39:07.330Z,6.70
2023-03-03T19:42:37.386Z,6.60
2023-03-03T19:46:25.764Z,6.70
2023-03-03T19:49:29.962Z,6.70
2023-03-03T19:52:22.574Z,6.70
2023-03-03T19:55:41.476Z,6.70
2023-03-03T19:58:49.431Z,6.70
2023-03-03T20:01:53.943Z,6.70
2023-03-03T20:04:50.709Z,6.70
2023-03-03T20:10:53.224Z,6.70
2023-03-03T20:13:53.419Z,6.60
2023-03-03T20:16:44.814Z,6.60
2023-03-03T20:19:30.160Z,6.60
2023-03-03T20:22:08.856Z,6.60
2023-03-03T20:24:59.445Z,6.60
2023-03-03T20:27:52.617Z,6.60
2023-03-03T20:30:45.233Z,6.60
2023-03-03T20:33:52.293Z,6.60
2023-03-03T20:36:58.082Z,6.60
2023-03-03T20:40:10.909Z,6.60
2023-03-03T20:43:06.771Z,6.60
2023-03-03T20:46:21.550Z,6.60
2023-03-03T20:49:09.411Z,6.60
2023-03-03T20:52:00.602Z,6.60
2023-03-03T20:54:56.317Z,6.50
2023-03-03T20:57:47.005Z,6.50
2023-03-03T21:00:36.152Z,6.50
2023-03-03T21:03:37.761Z,6.50
2023-03-03T21:06:19.519Z,6.50
2023-03-03T21:09:00.437Z,6.40
2023-03-03T21:11:33.887Z,6.50
2023-03-03T21:14:38.969Z,6.40
2023-03-03T21:17:27.818Z,6.40
2023-03-03T21:19:54.852Z,6.30
2023-03-03T21:22:22.135Z,6.40
2023-03-03T21:24:55.509Z,6.40
2023-03-03T21:27:38.467Z,6.30
2023-03-03T21:30:15.045Z,6.30
2023-03-03T21:32:44.066Z,6.30
2023-03-03T21:35:16.269Z,6.30
2023-03-03T21:37:56.477Z,6.30
2023-03-03T21:40:28.291Z,6.30
2023-03-03T21:42:58.919Z,6.30
2023-03-03T21:45:44.546Z,6.30
2023-03-03T21:48:11.444Z,6.20
2023-03-03T21:50:41.166Z,6.20
2023-03-03T21:53:08.776Z,6.20
2023-03-03T21:55:36.011Z,6.20
2023-03-03T21:58:03.155Z,6.20
2023-03-03T22:00:29.999Z,6.20
2023-03-03T22:02:57.552Z,6.20
2023-03-03T22:05:34.019Z,6.20
2023-03-03T22:08:00.935Z,6.10
2023-03-03T22:10:31.268Z,6.10
2023-03-03T22:12:58.347Z,6.20
2023-03-03T22:15:30.400Z,6.10
2023-03-03T22:17:57.588Z,6.10
2023-03-03T22:20:24.555Z,6.10
2023-03-03T22:22:52.242Z,6.10
2023-03-03T22:25:19.129Z,6.10
2023-03-03T22:27:46.178Z,6.10
2023-03-03T22:30:13.788Z,6.10
2023-03-03T22:32:40.742Z,6.00
2023-03-03T22:35:08.509Z,6.10
2023-03-03T22:37:35.353Z,6.00
2023-03-03T22:40:02.420Z,6.10
2023-03-03T22:42:29.420Z,6.00
2023-03-03T22:44:56.177Z,6.00
2023-03-03T22:47:23.062Z,6.00
2023-03-03T22:49:49.875Z,6.00
2023-03-03T22:52:16.732Z,6.00
2023-03-03T22:54:43.570Z,6.00
2023-03-03T22:57:10.450Z,6.10
2023-03-03T22:59:37.245Z,6.00
2023-03-03T23:02:04.194Z,6.00
2023-03-03T23:04:32.902Z,6.10
2023-03-03T23:07:01.169Z,6.10
2023-03-03T23:09:27.991Z,6.10
2023-03-03T23:11:56.368Z,6.10
2023-03-03T23:14:23.570Z,6.10
2023-03-03T23:16:50.514Z,6.10
2023-03-03T23:19:17.488Z,6.10
2023-03-03T23:21:44.333Z,6.00
2023-03-03T23:24:11.339Z,6.00
2023-03-03T23:26:39.006Z,6.00
2023-03-03T23:29:05.976Z,6.00
2023-03-03T23:31:32.801Z,6.00
2023-03-03T23:33:59.798Z,6.00
2023-03-03T23:36:26.647Z,6.00
2023-03-03T23:38:53.470Z,6.00
2023-03-03T23:41:20.665Z,6.00
2023-03-03T23:43:47.591Z,6.00
2023-03-03T23:46:15.244Z,6.00
2023-03-03T23:48:42.085Z,6.00
2023-03-03T23:51:08.924Z,6.00
2023-03-03T23:53:35.804Z,6.00
2023-03-03T23:56:02.652Z,6.00
2023-03-03T23:58:29.851Z,6.00
